Terminal Aerodrome Forecast
Issued by NWS

Home | Current Version | Previous Version | Text Only | Print | Product List | Glossary On
Versions: 1 2 3 4 5 6 7 8 9 10 11 12 13 14 15 16 17 18 19 20 21 22 23 24 25 26 27 28 29 30 31 32 33 34 35 36 37 38 39 40 41
000
FTUS41 KRNK 030531
TAFBCB
TAF
KBCB 030531Z 0306/0406 00000KT P6SM SCT100 BKN250
     FM031100 11004KT P6SM OVC020
      TEMPO 0312/0314 -PL
     FM031400 11005KT 5SM -FZRA BR SCT003 OVC015
     FM031700 15005KT 2SM -RA BR OVC008 WS020/22040KT
     FM032200 20005KT 2SM -RA BR OVC012 WS020/24045KT=

USA.gov is the U.S. government's official web portal to all federal, state and local government web resources and services.